Time;durP1;ratioP1;P1;durP2;ratioP2;P2;SDS_P1;SDS_P2;PMS_P1;PMS_P2;Temp;Humidity;BMP_temperature;BMP_pressure;BME280_temperature;BME280_humidity;BME280_pressure;Samples;Min_cycle;Max_cycle;Signal;HPM_P1;HPM_P2
2023/06/10 00:00:36;;;;;;;6.73;6.03;;;;;;;21.38;65.21;97729.75;4200261;28;20627;-84
2023/06/10 00:02:39;;;;;;;7.00;6.40;;;;;;;21.35;66.30;97734.59;4196227;28;20635;-84
2023/06/10 00:04:42;;;;;;;7.80;5.93;;;;;;;21.28;65.97;97731.81;4199311;28;20657;-84
2023/06/10 00:06:48;;;;;;;7.10;6.40;;;;;;;21.27;65.53;97736.47;4196637;28;21249;-84
2023/06/10 00:08:51;;;;;;;7.47;6.70;;;;;;;21.21;66.51;97737.19;4199222;28;21261;-84
2023/06/10 00:10:54;;;;;;;5.53;5.03;;;;;;;21.20;65.81;97740.84;4197311;28;20674;-84
2023/06/10 00:12:57;;;;;;;6.93;6.27;;;;;;;21.16;66.88;97739.56;4194883;28;20726;-84
2023/06/10 00:15:02;;;;;;;5.57;5.07;;;;;;;21.12;67.21;97747.03;4205582;28;21204;-84
2023/06/10 00:17:09;;;;;;;5.70;5.20;;;;;;;21.10;66.45;97745.59;4202235;28;21618;-84
2023/06/10 00:19:13;;;;;;;6.60;5.87;;;;;;;21.10;66.22;97745.59;4197111;28;20670;-84
2023/06/10 00:21:17;;;;;;;6.30;5.63;;;;;;;21.09;66.79;97746.56;4203483;28;20634;-84
2023/06/10 00:23:20;;;;;;;6.30;5.70;;;;;;;21.09;66.11;97746.56;4190080;28;20664;-84
2023/06/10 00:25:23;;;;;;;5.73;5.20;;;;;;;21.08;66.33;97747.56;4186315;28;20748;-84
2023/06/10 00:27:31;;;;;;;7.53;5.77;;;;;;;21.04;66.19;97747.09;4189414;28;20674;-84
2023/06/10 00:29:36;;;;;;;5.80;5.20;;;;;;;21.01;67.42;97746.66;4198145;28;20619;-84
2023/06/10 00:31:40;;;;;;;6.60;5.90;;;;;;;20.95;67.18;97742.88;4192145;28;20984;-84
2023/06/10 00:33:43;;;;;;;6.20;5.60;;;;;;;20.93;66.43;97742.22;4194964;28;20651;-84
2023/06/10 00:35:47;;;;;;;5.20;4.70;;;;;;;20.93;67.15;97744.06;4184816;28;20631;-84
2023/06/10 00:37:50;;;;;;;5.87;5.27;;;;;;;20.92;67.07;97735.25;4179578;28;21329;-84
2023/06/10 00:39:53;;;;;;;6.33;5.73;;;;;;;20.93;67.72;97738.75;4193677;28;20720;-83
2023/06/10 00:41:56;;;;;;;6.97;6.27;;;;;;;20.88;66.86;97744.59;4184256;28;20722;-84
2023/06/10 00:43:59;;;;;;;7.33;6.57;;;;;;;20.87;67.26;97747.41;4180062;28;20635;-83
2023/06/10 00:46:03;;;;;;;7.43;6.63;;;;;;;20.83;69.52;97754.88;4183536;28;20764;-83
2023/06/10 00:48:08;;;;;;;6.70;6.10;;;;;;;20.81;68.27;97756.09;4190657;28;20776;-83
2023/06/10 00:50:12;;;;;;;7.50;6.70;;;;;;;20.77;69.45;97757.41;4175415;28;20684;-83
2023/06/10 00:52:16;;;;;;;8.63;6.30;;;;;;;20.73;69.14;97755.28;4194765;28;21827;-83
2023/06/10 00:54:19;;;;;;;7.33;6.63;;;;;;;20.68;69.68;97760.31;4191525;28;20652;-83
2023/06/10 00:56:22;;;;;;;8.60;7.57;;;;;;;20.63;69.14;97762.63;4191958;28;20665;-83
2023/06/10 00:58:26;;;;;;;8.50;7.40;;;;;;;20.56;69.34;97757.19;4194387;28;21286;-84
2023/06/10 01:00:29;;;;;;;7.73;6.93;;;;;;;20.48;70.19;97757.22;4174957;28;20647;-83
2023/06/10 01:02:32;;;;;;;7.60;6.90;;;;;;;20.44;71.38;97752.44;4193943;28;20630;-83
2023/06/10 01:04:37;;;;;;;8.43;7.03;;;;;;;20.35;70.60;97751.66;4196705;28;20696;-83
2023/06/10 01:06:47;;;;;;;8.37;7.57;;;;;;;20.30;71.61;97749.69;4191767;28;20725;-83
2023/06/10 01:08:55;;;;;;;10.23;8.10;;;;;;;20.22;72.40;97753.22;4195115;28;20648;-83
2023/06/10 01:11:01;;;;;;;8.40;7.43;;;;;;;20.15;72.00;97754.09;4196849;28;20759;-83
2023/06/10 01:13:06;;;;;;;7.93;7.13;;;;;;;20.08;72.82;97750.47;4196128;28;21218;-84
2023/06/10 01:15:10;;;;;;;8.60;7.80;;;;;;;20.01;72.59;97754.78;4188311;28;20645;-83
2023/06/10 01:17:16;;;;;;;8.03;7.23;;;;;;;19.93;73.91;97754.81;4198526;28;20639;-84
2023/06/10 01:19:20;;;;;;;14.17;9.03;;;;;;;19.86;73.15;97756.50;4199418;28;20621;-84
2023/06/10 01:21:26;;;;;;;8.73;7.83;;;;;;;19.77;72.80;97754.84;4208945;28;20637;-83
2023/06/10 01:23:30;;;;;;;10.83;9.20;;;;;;;19.66;73.66;97749.06;4201618;28;20988;-83
2023/06/10 01:25:36;;;;;;;9.33;7.77;;;;;;;19.58;73.60;97747.28;4202708;28;20639;-83
2023/06/10 01:27:40;;;;;;;8.90;8.00;;;;;;;19.47;74.33;97744.97;4187795;28;20731;-84
2023/06/10 01:29:48;;;;;;;8.80;8.00;;;;;;;19.42;74.73;97751.75;4194171;28;20987;-83
2023/06/10 01:31:58;;;;;;;9.03;8.13;;;;;;;19.36;75.55;97746.31;4186608;28;20660;-83
2023/06/10 01:34:02;;;;;;;8.57;7.77;;;;;;;19.31;74.86;97743.34;4199033;28;20641;-83
2023/06/10 01:36:05;;;;;;;9.27;7.33;;;;;;;19.28;75.71;97746.34;4181852;28;20738;-83
2023/06/10 01:38:12;;;;;;;9.30;8.40;;;;;;;19.24;75.56;97752.94;4189566;28;21060;-83
2023/06/10 01:40:15;;;;;;;9.33;8.27;;;;;;;19.19;75.61;97750.78;4174274;28;20647;-83
2023/06/10 01:42:18;;;;;;;8.57;7.77;;;;;;;19.10;76.64;97749.13;4185850;28;20700;-83
2023/06/10 01:44:23;;;;;;;9.70;8.07;;;;;;;19.04;76.16;97755.09;4185238;28;21215;-83
2023/06/10 01:46:26;;;;;;;8.90;8.00;;;;;;;19.00;76.65;97750.25;4179048;28;20642;-83
2023/06/10 01:48:29;;;;;;;10.07;8.60;;;;;;;18.95;77.17;97748.09;4186942;28;20677;-83
2023/06/10 01:50:32;;;;;;;9.33;8.40;;;;;;;18.92;77.52;97752.91;4187643;28;20655;-83
2023/06/10 01:52:35;;;;;;;8.47;7.57;;;;;;;18.91;76.58;97756.53;4185501;28;20664;-84
2023/06/10 01:54:40;;;;;;;9.53;8.43;;;;;;;18.89;77.18;97747.94;4187398;28;20681;-83
2023/06/10 01:56:43;;;;;;;9.17;8.10;;;;;;;18.83;77.26;97753.88;4190535;28;24790;-83
2023/06/10 01:58:47;;;;;;;8.73;7.53;;;;;;;18.79;78.10;97757.00;4174792;28;21238;-83
2023/06/10 02:00:50;;;;;;;9.20;8.30;;;;;;;18.75;78.12;97756.53;4188373;28;20726;-83
2023/06/10 02:02:53;;;;;;;9.60;8.10;;;;;;;18.74;78.09;97756.69;4196683;28;20631;-83
2023/06/10 02:04:57;;;;;;;9.03;8.13;;;;;;;18.71;78.50;97759.66;4183671;28;20628;-83
2023/06/10 02:07:04;;;;;;;8.27;7.43;;;;;;;18.70;78.41;97758.84;4186889;28;20663;-83
2023/06/10 02:09:07;;;;;;;9.07;8.17;;;;;;;18.71;78.03;97768.41;4168799;28;20634;-84
2023/06/10 02:11:12;;;;;;;8.37;7.57;;;;;;;18.70;78.48;97771.19;4182540;28;20635;-83
2023/06/10 02:13:15;;;;;;;8.70;7.90;;;;;;;18.66;78.30;97764.59;4186828;28;20632;-83
2023/06/10 02:15:19;;;;;;;9.03;7.90;;;;;;;18.66;78.08;97762.78;4188553;28;21345;-83
2023/06/10 02:17:23;;;;;;;8.93;8.03;;;;;;;18.66;77.39;97764.59;4187576;28;20632;-83
2023/06/10 02:19:26;;;;;;;8.40;7.60;;;;;;;18.65;77.62;97771.69;4195195;28;20646;-84
2023/06/10 02:21:29;;;;;;;8.03;7.20;;;;;;;18.64;77.56;97763.91;4192233;28;20671;-83
2023/06/10 02:23:32;;;;;;;7.93;7.13;;;;;;;18.65;77.44;97768.22;4191668;28;20665;-83
2023/06/10 02:25:39;;;;;;;9.07;6.80;;;;;;;18.63;78.36;97763.09;4181480;28;20709;-83
2023/06/10 02:27:44;;;;;;;8.40;7.60;;;;;;;18.64;77.63;97766.56;4187131;28;20660;-83
2023/06/10 02:29:47;;;;;;;8.93;7.30;;;;;;;18.62;77.89;97758.78;4189036;28;20633;-83
2023/06/10 02:31:52;;;;;;;8.10;7.30;;;;;;;18.62;77.90;97772.00;4177647;28;21314;-83
2023/06/10 02:33:56;;;;;;;8.07;7.27;;;;;;;18.61;78.17;97769.53;4189908;28;21070;-83
2023/06/10 02:36:00;;;;;;;8.10;7.30;;;;;;;18.59;78.29;97772.31;4192764;28;20666;-83
2023/06/10 02:38:03;;;;;;;8.97;8.07;;;;;;;18.56;78.41;97775.28;4192871;28;20628;-84
2023/06/10 02:40:10;;;;;;;7.77;6.90;;;;;;;18.56;78.57;97777.13;4176045;28;21236;-83
2023/06/10 02:42:14;;;;;;;8.23;7.40;;;;;;;18.52;78.50;97779.25;4178305;28;20670;-83
2023/06/10 02:44:20;;;;;;;8.67;7.77;;;;;;;18.50;78.48;97772.47;4185456;28;20638;-84
2023/06/10 02:46:23;;;;;;;8.87;7.97;;;;;;;18.47;78.97;97778.09;4169699;28;21200;-83
2023/06/10 02:48:29;;;;;;;8.50;7.63;;;;;;;18.45;78.92;97775.59;4186622;28;20682;-83
2023/06/10 02:50:33;;;;;;;7.80;7.00;;;;;;;18.44;78.30;97779.22;4181329;28;20647;-84
2023/06/10 02:52:48;;;;;;;7.47;6.77;;;;;;;18.47;78.80;97780.72;4192032;28;21237;-83
2023/06/10 02:54:51;;;;;;;7.43;6.73;;;;;;;18.44;78.60;97779.22;4185471;28;21259;-83
2023/06/10 02:56:55;;;;;;;9.70;7.27;;;;;;;18.45;78.80;97788.00;4174961;28;20645;-84
2023/06/10 02:59:01;;;;;;;7.93;7.13;;;;;;;18.41;78.64;97777.91;4188940;28;21258;-83
2023/06/10 03:01:09;;;;;;;8.53;7.00;;;;;;;18.38;79.08;97783.50;4186860;28;21206;-83
2023/06/10 03:03:27;;;;;;;8.60;7.37;;;;;;;18.33;79.05;97785.78;4174228;28;21115;-83
2023/06/10 03:05:40;;;;;;;8.30;7.50;;;;;;;18.25;79.02;97789.25;4200039;28;20635;-83
2023/06/10 03:07:43;;;;;;;7.83;7.03;;;;;;;18.23;79.31;97787.75;4201510;28;20741;-84
2023/06/10 03:09:46;;;;;;;8.03;7.23;;;;;;;18.20;79.48;97788.06;4190533;28;20675;-83
2023/06/10 03:11:50;;;;;;;8.83;7.93;;;;;;;18.17;79.51;97791.00;4197083;28;20636;-84
2023/06/10 03:13:55;;;;;;;9.30;7.80;;;;;;;18.12;80.00;97780.91;4196274;28;20650;-86
2023/06/10 03:15:59;;;;;;;7.50;6.80;;;;;;;18.10;80.41;97787.31;4182617;28;20624;-85
2023/06/10 03:18:04;;;;;;;9.30;7.87;;;;;;;18.08;80.19;97791.94;4197093;28;21252;-86
2023/06/10 03:20:10;;;;;;;8.43;7.57;;;;;;;18.03;80.15;97787.13;4215826;28;20633;-86
2023/06/10 03:22:17;;;;;;;8.50;7.37;;;;;;;17.99;80.47;97785.78;4194749;28;20638;-85
2023/06/10 03:24:40;;;;;;;7.70;7.00;;;;;;;18.02;80.31;97792.56;4201347;28;21221;-84
2023/06/10 03:26:46;;;;;;;8.33;7.53;;;;;;;18.02;80.63;97788.09;4198663;28;20699;-84
2023/06/10 03:28:49;;;;;;;8.83;7.40;;;;;;;18.03;80.64;97789.75;4187937;28;21335;-84
2023/06/10 03:30:53;;;;;;;8.77;7.20;;;;;;;18.02;80.74;97797.84;4197167;28;20642;-84
2023/06/10 03:32:59;;;;;;;8.50;7.57;;;;;;;18.01;81.19;97804.09;4187930;28;21119;-83
2023/06/10 03:35:07;;;;;;;8.47;7.07;;;;;;;17.99;80.66;97800.78;4201283;28;20671;-84
2023/06/10 03:37:12;;;;;;;9.17;8.00;;;;;;;17.96;80.91;97801.09;4197520;28;20624;-84
2023/06/10 03:39:15;;;;;;;7.63;6.90;;;;;;;17.92;81.16;97796.28;4203173;28;20729;-84
2023/06/10 03:41:19;;;;;;;8.20;7.33;;;;;;;17.91;80.77;97800.75;4184488;28;20713;-83
2023/06/10 03:43:22;;;;;;;7.80;7.00;;;;;;;17.90;81.45;97808.81;4199928;28;20724;-84
2023/06/10 03:45:28;;;;;;;8.77;7.77;;;;;;;17.90;81.36;97804.38;4195469;28;20629;-84
2023/06/10 03:47:35;;;;;;;8.30;7.50;;;;;;;17.88;81.64;97814.25;4188358;28;20673;-83
2023/06/10 03:49:41;;;;;;;8.13;7.10;;;;;;;17.91;81.50;97811.31;4201063;28;21057;-84
2023/06/10 03:51:46;;;;;;;8.23;7.43;;;;;;;17.90;81.46;97812.28;4199698;28;21082;-84
2023/06/10 03:53:50;;;;;;;8.30;7.40;;;;;;;17.93;81.16;97809.34;4192851;28;20732;-84
2023/06/10 03:55:53;;;;;;;8.43;7.63;;;;;;;17.95;80.60;97821.41;4200090;28;20630;-84
2023/06/10 03:57:59;;;;;;;8.37;7.47;;;;;;;17.92;80.73;97824.34;4203020;28;20641;-84
2023/06/10 04:00:06;;;;;;;8.40;7.30;;;;;;;17.95;81.23;97828.47;4194983;28;20706;-83
2023/06/10 04:02:17;;;;;;;7.83;7.03;;;;;;;17.98;81.81;97833.44;4196581;28;20634;-84
2023/06/10 04:04:21;;;;;;;7.77;6.87;;;;;;;18.01;82.38;97831.34;4202073;28;20633;-84
2023/06/10 04:06:25;;;;;;;9.13;7.60;;;;;;;18.02;81.51;97832.16;4187662;28;20688;-84
2023/06/10 04:08:31;;;;;;;8.97;8.07;;;;;;;18.03;81.45;97828.53;4189539;28;20617;-84
2023/06/10 04:10:35;;;;;;;7.97;7.03;;;;;;;18.05;82.37;97824.72;4186769;28;20642;-84
2023/06/10 04:12:38;;;;;;;8.80;7.40;;;;;;;18.09;82.17;97830.56;4201864;28;20641;-84
2023/06/10 04:14:42;;;;;;;8.50;7.60;;;;;;;18.08;81.40;97829.69;4191112;28;20651;-84
2023/06/10 04:16:47;;;;;;;8.00;7.20;;;;;;;18.10;81.37;97837.47;4195437;28;20930;-84
2023/06/10 04:18:50;;;;;;;8.53;7.63;;;;;;;18.11;81.78;97829.38;4206465;28;20666;-84
2023/06/10 04:20:55;;;;;;;9.40;8.40;;;;;;;18.14;81.57;97833.56;4203603;28;20638;-84
2023/06/10 04:22:59;;;;;;;8.43;7.50;;;;;;;18.16;81.82;97834.22;4204330;28;20637;-84
2023/06/10 04:25:04;;;;;;;7.80;7.00;;;;;;;18.20;81.76;97841.69;4199601;28;20646;-83
2023/06/10 04:27:07;;;;;;;9.60;7.87;;;;;;;18.24;82.06;97850.13;4188369;28;20659;-84
2023/06/10 04:29:10;;;;;;;8.40;7.40;;;;;;;18.30;82.18;97858.25;4202437;28;21205;-84
2023/06/10 04:31:14;;;;;;;7.97;6.97;;;;;;;18.34;82.18;97850.81;4201268;28;20645;-84
2023/06/10 04:33:19;;;;;;;9.20;7.10;;;;;;;18.41;82.18;97850.03;4206545;28;20644;-84
2023/06/10 04:35:22;;;;;;;7.67;6.63;;;;;;;18.51;82.05;97856.84;4188714;28;20615;-84
2023/06/10 04:37:25;;;;;;;7.13;6.43;;;;;;;18.61;80.91;97854.94;4200382;28;20729;-84
2023/06/10 04:39:30;;;;;;;7.00;6.30;;;;;;;18.70;81.63;97856.59;4189390;28;20749;-84
2023/06/10 04:41:35;;;;;;;7.70;6.90;;;;;;;18.73;80.75;97855.44;4177179;28;20697;-84
2023/06/10 04:43:38;;;;;;;8.93;7.40;;;;;;;18.76;80.60;97850.66;4187744;28;20765;-84
2023/06/10 04:45:44;;;;;;;8.80;7.90;;;;;;;18.79;81.61;97863.53;4201496;28;20632;-84
2023/06/10 04:47:48;;;;;;;8.70;7.17;;;;;;;18.84;81.12;97863.91;4183964;28;20639;-84
2023/06/10 04:49:52;;;;;;;9.60;8.00;;;;;;;18.86;80.97;97863.75;4195156;28;20729;-84
2023/06/10 04:51:55;;;;;;;8.50;7.60;;;;;;;18.88;81.63;97860.78;4183954;28;20636;-84
2023/06/10 04:54:02;;;;;;;8.20;7.40;;;;;;;18.91;81.33;97871.03;4200986;28;20656;-84
2023/06/10 04:56:05;;;;;;;7.50;6.70;;;;;;;18.94;80.50;97869.88;4197121;28;20638;-84
2023/06/10 04:58:10;;;;;;;8.83;7.93;;;;;;;18.98;80.65;97874.69;4186002;28;21076;-84
2023/06/10 05:00:14;;;;;;;8.60;7.53;;;;;;;19.05;81.29;97873.09;4196942;28;20681;-84
2023/06/10 05:02:17;;;;;;;8.67;7.80;;;;;;;19.12;81.37;97871.44;4203154;28;21235;-84
2023/06/10 05:04:20;;;;;;;7.10;6.40;;;;;;;19.21;80.17;97877.56;4207005;28;20625;-84
2023/06/10 05:06:23;;;;;;;8.20;7.40;;;;;;;19.27;80.64;97874.28;4204605;28;21242;-84
2023/06/10 05:08:26;;;;;;;7.80;7.00;;;;;;;19.31;79.37;97873.78;4198834;28;20624;-84
2023/06/10 05:10:31;;;;;;;7.63;6.83;;;;;;;19.37;80.59;97873.94;4196091;28;20733;-84
2023/06/10 05:12:34;;;;;;;7.20;6.50;;;;;;;19.47;80.12;97881.75;4199856;28;20703;-84
2023/06/10 05:14:39;;;;;;;8.60;7.53;;;;;;;19.53;79.75;97881.06;4192128;28;20661;-84
2023/06/10 05:16:43;;;;;;;7.50;6.73;;;;;;;19.58;79.88;97874.28;4201874;28;20734;-84
2023/06/10 05:18:46;;;;;;;7.33;6.63;;;;;;;19.63;80.56;97877.25;4204851;28;20634;-84
2023/06/10 05:20:50;;;;;;;7.10;6.40;;;;;;;19.69;79.50;97881.91;4201086;28;21211;-84
2023/06/10 05:22:53;;;;;;;7.90;7.10;;;;;;;19.78;79.29;97880.91;4199603;28;21049;-84
2023/06/10 05:24:56;;;;;;;6.97;6.27;;;;;;;19.85;78.76;97880.06;4185467;28;20726;-84
2023/06/10 05:27:00;;;;;;;7.60;6.80;;;;;;;19.95;78.90;97885.22;4194233;28;20647;-84
2023/06/10 05:29:03;;;;;;;7.30;6.60;;;;;;;20.07;80.59;97887.38;4188426;28;20634;-84
2023/06/10 05:31:07;;;;;;;8.27;7.47;;;;;;;20.21;78.45;97886.69;4188065;28;20686;-84
2023/06/10 05:33:10;;;;;;;8.27;7.30;;;;;;;20.35;80.05;97886.78;4180134;28;21358;-83
2023/06/10 05:35:14;;;;;;;7.20;6.50;;;;;;;20.55;79.13;97896.03;4190128;28;21052;-83
2023/06/10 05:37:17;;;;;;;7.10;6.37;;;;;;;20.80;78.84;97896.78;4179932;28;20721;-84
2023/06/10 05:39:20;;;;;;;7.30;6.30;;;;;;;21.07;78.33;97895.31;4188416;28;20669;-83
2023/06/10 05:41:23;;;;;;;6.87;6.17;;;;;;;21.41;77.97;97896.59;4195289;28;20668;-83
2023/06/10 05:43:27;;;;;;;6.60;5.83;;;;;;;21.75;76.91;97907.66;4186758;28;20708;-84
2023/06/10 05:45:30;;;;;;;6.73;6.03;;;;;;;22.09;75.79;97910.69;4189539;28;20684;-83
2023/06/10 05:47:34;;;;;;;8.97;6.30;;;;;;;22.44;75.17;97917.00;4191149;28;20644;-84
2023/06/10 05:49:37;;;;;;;6.73;5.77;;;;;;;22.65;73.32;97916.28;4187831;28;20680;-83
2023/06/10 05:51:41;;;;;;;6.93;5.63;;;;;;;22.89;73.74;97922.16;4188377;28;21303;-82
2023/06/10 05:53:46;;;;;;;6.83;5.20;;;;;;;23.12;70.04;97921.03;4189489;28;20762;-83
2023/06/10 05:55:49;;;;;;;5.20;4.70;;;;;;;23.40;72.10;97928.13;4190651;28;20634;-82
2023/06/10 05:57:59;;;;;;;6.60;5.63;;;;;;;23.76;70.06;97932.44;4194254;28;20721;-81
2023/06/10 06:00:02;;;;;;;6.17;5.47;;;;;;;24.00;69.53;97926.72;4186858;28;20637;-81
2023/06/10 06:02:14;;;;;;;5.23;4.73;;;;;;;24.19;69.38;97921.56;4185018;28;21036;-81
2023/06/10 06:04:19;;;;;;;6.43;5.53;;;;;;;24.38;66.88;97925.44;4182745;28;20633;-81
2023/06/10 06:06:23;;;;;;;6.37;5.73;;;;;;;24.50;67.18;97930.03;4187730;28;21209;-81
2023/06/10 06:08:26;;;;;;;6.07;5.47;;;;;;;24.73;67.22;97926.09;4162169;28;20634;-80
2023/06/10 06:10:29;;;;;;;5.97;5.23;;;;;;;24.89;66.28;97928.44;4186080;28;20716;-81
2023/06/10 06:12:34;;;;;;;5.90;5.30;;;;;;;25.10;66.54;97931.03;4181992;28;20735;-81
2023/06/10 06:14:40;;;;;;;6.07;5.47;;;;;;;25.29;65.22;97933.78;4191139;28;20659;-80
2023/06/10 06:16:45;;;;;;;6.43;5.60;;;;;;;25.34;64.92;97934.00;4174683;28;20714;-80
2023/06/10 06:18:48;;;;;;;6.27;5.33;;;;;;;25.51;65.26;97929.13;4184606;28;20650;-81
2023/06/10 06:20:53;;;;;;;5.07;4.57;;;;;;;25.75;65.25;97935.59;4170912;28;20652;-81
2023/06/10 06:22:56;;;;;;;6.30;5.67;;;;;;;25.91;64.24;97932.53;4184066;28;20630;-80
2023/06/10 06:24:59;;;;;;;6.53;5.90;;;;;;;26.18;65.00;97934.22;4188468;28;21432;-81
2023/06/10 06:27:04;;;;;;;6.07;5.47;;;;;;;26.38;63.55;97938.56;4177619;28;20996;-81
2023/06/10 06:29:13;;;;;;;5.80;5.20;;;;;;;26.55;63.58;97942.44;4174379;28;21203;-81
2023/06/10 06:31:17;;;;;;;6.23;5.27;;;;;;;26.62;62.65;97935.25;4173718;28;20820;-81
2023/06/10 06:33:21;;;;;;;6.93;5.40;;;;;;;26.64;62.25;97934.03;4191554;28;20639;-81
2023/06/10 06:35:24;;;;;;;5.83;5.07;;;;;;;26.77;62.37;97931.31;4181542;28;20654;-81
2023/06/10 06:37:29;;;;;;;5.90;5.40;;;;;;;26.97;61.55;97939.31;4184832;28;21261;-80
2023/06/10 06:39:51;;;;;;;6.60;5.90;;;;;;;26.94;60.36;97931.72;4172309;28;21464;-80
2023/06/10 06:41:56;;;;;;;5.83;5.27;;;;;;;26.82;61.00;97928.00;4180959;28;20629;-80
2023/06/10 06:44:16;;;;;;;5.53;5.03;;;;;;;26.84;61.13;97932.13;4166128;28;20693;-80
2023/06/10 06:46:28;;;;;;;5.97;5.37;;;;;;;27.09;61.51;97941.13;4182899;28;20640;-80
2023/06/10 06:48:31;;;;;;;5.70;5.17;;;;;;;27.11;60.94;97937.22;4169120;28;20648;-80
2023/06/10 06:50:35;;;;;;;5.30;4.80;;;;;;;27.32;61.13;97930.72;4179220;28;20630;-80
2023/06/10 06:52:40;;;;;;;6.40;5.00;;;;;;;27.42;60.01;97934.59;4192479;28;21292;-80
2023/06/10 06:54:44;;;;;;;5.27;4.77;;;;;;;27.53;60.72;97937.50;4183762;28;20675;-81
2023/06/10 06:56:49;;;;;;;6.00;5.40;;;;;;;27.65;59.31;97940.31;4185611;28;20675;-80
2023/06/10 06:58:52;;;;;;;6.37;5.20;;;;;;;27.62;59.56;97935.38;4184277;28;20759;-83
2023/06/10 07:01:00;;;;;;;5.87;5.30;;;;;;;27.85;60.54;97939.16;4179548;28;21000;-81
2023/06/10 07:03:04;;;;;;;5.80;5.27;;;;;;;28.00;60.34;97937.00;4192490;28;20738;-83
2023/06/10 07:05:10;;;;;;;6.03;5.47;;;;;;;28.15;60.05;97933.00;4191452;28;21219;-84
2023/06/10 07:07:14;;;;;;;5.90;5.30;;;;;;;28.41;60.75;97931.97;4191558;28;20658;-84
2023/06/10 07:09:18;;;;;;;5.40;4.90;;;;;;;28.67;60.65;97932.56;4200110;28;20658;-84
2023/06/10 07:11:22;;;;;;;5.90;5.33;;;;;;;28.92;59.59;97931.47;4195455;28;20627;-84
2023/06/10 07:13:25;;;;;;;5.77;5.27;;;;;;;29.06;58.10;97941.88;4189219;28;20671;-84
2023/06/10 07:15:28;;;;;;;7.57;6.13;;;;;;;29.07;59.22;97946.19;4198195;28;21272;-83
2023/06/10 07:17:31;;;;;;;6.73;5.60;;;;;;;28.92;58.10;97930.66;4200341;28;20742;-84
2023/06/10 07:19:34;;;;;;;6.37;5.77;;;;;;;29.09;58.82;97944.13;4204638;28;21563;-84
2023/06/10 07:21:37;;;;;;;6.80;6.10;;;;;;;29.19;57.69;97948.97;4202404;28;20622;-84
2023/06/10 07:23:43;;;;;;;6.07;5.57;;;;;;;29.16;57.77;97944.03;4198227;28;20733;-84
2023/06/10 07:25:47;;;;;;;6.43;5.40;;;;;;;29.25;58.25;97938.16;4200918;28;20686;-84
2023/06/10 07:27:50;;;;;;;7.80;6.10;;;;;;;29.46;58.28;97945.75;4187749;28;20644;-84
2023/06/10 07:29:54;;;;;;;6.27;5.67;;;;;;;29.61;57.54;97951.56;4185343;28;20627;-82
2023/06/10 07:31:57;;;;;;;6.40;5.50;;;;;;;29.66;57.53;97943.63;4192872;28;20634;-82
2023/06/10 07:34:00;;;;;;;6.93;6.23;;;;;;;29.81;56.96;97942.19;4184761;28;20635;-83
2023/06/10 07:36:08;;;;;;;6.20;5.60;;;;;;;29.94;56.29;97945.53;4184899;28;20648;-83
2023/06/10 07:38:12;;;;;;;6.33;5.73;;;;;;;29.98;56.46;97946.72;4193431;28;20635;-85
2023/06/10 07:40:15;;;;;;;6.20;5.60;;;;;;;30.08;56.71;97935.38;4170574;28;20637;-86
2023/06/10 07:42:19;;;;;;;6.50;5.90;;;;;;;30.17;56.70;97934.81;4193187;28;20638;-84
2023/06/10 07:44:22;;;;;;;6.77;6.17;;;;;;;30.03;56.18;97937.97;4192927;28;21189;-84
2023/06/10 07:46:26;;;;;;;6.77;6.17;;;;;;;29.91;55.45;97938.97;4196231;28;21287;-83
2023/06/10 07:48:30;;;;;;;8.30;5.93;;;;;;;29.77;56.18;97929.41;4195105;28;20663;-85
2023/06/10 07:50:33;;;;;;;7.03;6.10;;;;;;;29.97;57.83;97928.91;4200989;28;20675;-86
2023/06/10 07:52:36;;;;;;;5.80;5.20;;;;;;;30.20;57.17;97933.56;4200403;28;20639;-84
2023/06/10 07:54:39;;;;;;;6.90;5.60;;;;;;;30.29;55.25;97932.97;4197289;28;20979;-85
2023/06/10 07:56:42;;;;;;;7.47;5.83;;;;;;;30.31;55.76;97933.59;4193827;28;21248;-87
2023/06/10 07:58:47;;;;;;;6.17;5.57;;;;;;;30.44;56.88;97930.69;4190370;28;20674;-82
2023/06/10 08:00:50;;;;;;;6.13;5.53;;;;;;;30.63;55.82;97929.53;4196761;28;20722;-81
2023/06/10 08:02:53;;;;;;;6.10;5.50;;;;;;;30.71;55.81;97935.38;4195543;28;20674;-83
2023/06/10 08:04:56;;;;;;;6.33;5.73;;;;;;;30.62;55.33;97930.59;4195589;28;20676;-82
2023/06/10 08:06:59;;;;;;;6.60;5.90;;;;;;;30.72;55.27;97928.16;4201288;28;20674;-81
2023/06/10 08:09:03;;;;;;;6.20;5.60;;;;;;;30.74;54.61;97931.41;4199620;28;21871;-83
2023/06/10 08:11:06;;;;;;;5.83;5.33;;;;;;;30.70;54.23;97935.63;4199839;28;20636;-81
2023/06/10 08:13:09;;;;;;;6.00;5.40;;;;;;;30.70;54.47;97931.06;4205085;28;21148;-81
2023/06/10 08:15:14;;;;;;;6.17;5.47;;;;;;;30.73;54.23;97922.53;4201844;28;20734;-82
2023/06/10 08:17:17;;;;;;;6.03;5.50;;;;;;;30.81;55.12;97929.41;4197731;28;20986;-82
2023/06/10 08:19:21;;;;;;;6.37;5.77;;;;;;;30.75;54.30;97922.28;4191130;28;20647;-82
2023/06/10 08:21:24;;;;;;;6.07;5.57;;;;;;;30.71;54.38;97921.09;4189233;28;20635;-83
2023/06/10 08:23:27;;;;;;;6.50;5.90;;;;;;;30.55;54.19;97916.41;4197179;28;20675;-82
2023/06/10 08:25:30;;;;;;;5.70;5.20;;;;;;;30.53;54.73;97907.75;4198949;28;21073;-82
2023/06/10 08:27:33;;;;;;;6.03;5.40;;;;;;;30.76;55.27;97918.50;4186429;28;20639;-82
2023/06/10 08:29:37;;;;;;;6.30;5.70;;;;;;;30.50;54.33;97914.41;4200746;28;20639;-82
2023/06/10 08:31:43;;;;;;;6.73;5.80;;;;;;;30.35;53.96;97909.72;4195547;28;21533;-82
2023/06/10 08:33:47;;;;;;;6.70;5.67;;;;;;;30.12;56.79;97907.78;4198195;28;20638;-82
2023/06/10 08:35:50;;;;;;;6.10;5.60;;;;;;;30.05;54.93;97900.84;4192933;28;21089;-82
2023/06/10 08:37:53;;;;;;;6.90;6.10;;;;;;;30.01;54.63;97897.81;4193543;28;20702;-82
2023/06/10 08:39:56;;;;;;;6.03;5.53;;;;;;;29.98;54.06;97903.66;4199649;28;20726;-82
2023/06/10 08:42:12;;;;;;;6.43;5.83;;;;;;;29.99;54.94;97905.31;4185897;28;20628;-83
2023/06/10 08:44:20;;;;;;;6.93;5.80;;;;;;;29.89;54.69;97908.75;4180915;28;20658;-83
2023/06/10 08:46:23;;;;;;;6.43;5.83;;;;;;;29.82;54.75;97902.69;4179160;28;20756;-81
2023/06/10 08:48:30;;;;;;;7.00;6.30;;;;;;;29.77;54.19;97900.66;4199931;28;21144;-83
2023/06/10 08:50:36;;;;;;;6.97;6.30;;;;;;;29.45;54.76;97897.59;4188838;28;20647;-83
2023/06/10 08:52:43;;;;;;;6.43;5.73;;;;;;;29.64;55.84;97898.13;4203752;28;20631;-84
2023/06/10 08:54:50;;;;;;;7.20;6.50;;;;;;;29.85;56.29;97907.59;4199569;28;21316;-83
2023/06/10 08:56:55;;;;;;;7.40;6.70;;;;;;;29.81;56.65;97909.91;4197321;28;20656;-84
2023/06/10 08:58:58;;;;;;;7.30;6.50;;;;;;;29.99;55.89;97908.00;4200066;28;20619;-84
2023/06/10 09:01:02;;;;;;;7.20;6.53;;;;;;;30.14;55.73;97913.75;4203677;28;20643;-84
2023/06/10 09:03:08;;;;;;;6.80;6.20;;;;;;;30.15;55.10;97912.69;4199066;28;21282;-84
2023/06/10 09:05:14;;;;;;;8.10;7.30;;;;;;;29.98;55.62;97911.72;4199088;28;20998;-84
2023/06/10 09:07:19;;;;;;;7.23;5.77;;;;;;;29.76;56.31;97898.19;4203394;28;20661;-84
2023/06/10 09:09:24;;;;;;;7.50;6.70;;;;;;;29.92;55.98;97911.84;4173226;28;20632;-85
2023/06/10 09:11:27;;;;;;;7.90;7.10;;;;;;;29.97;55.87;97902.00;4200334;28;20941;-84
2023/06/10 09:13:30;;;;;;;7.50;6.83;;;;;;;30.06;56.44;97900.63;4184712;28;21050;-84
2023/06/10 09:15:33;;;;;;;7.50;6.80;;;;;;;29.82;54.62;97900.00;4195072;28;20650;-84
2023/06/10 09:17:37;;;;;;;6.90;6.30;;;;;;;29.84;55.77;97897.88;4204716;28;21307;-84
2023/06/10 09:19:41;;;;;;;7.47;6.77;;;;;;;29.86;55.11;97895.78;4199907;28;20638;-85
2023/06/10 09:21:46;;;;;;;7.60;6.90;;;;;;;30.00;56.09;97896.16;4200064;28;20679;-86
2023/06/10 09:23:49;;;;;;;7.07;6.47;;;;;;;29.89;55.48;97892.63;4182880;28;21060;-85
2023/06/10 09:25:57;;;;;;;7.30;6.60;;;;;;;29.66;56.31;97892.53;4198804;28;20643;-86
2023/06/10 09:28:00;;;;;;;7.20;6.60;;;;;;;29.68;56.53;97891.25;4195377;28;20675;-83
2023/06/10 09:30:04;;;;;;;7.13;6.43;;;;;;;29.43;56.16;97886.25;4197029;28;21219;-84
2023/06/10 09:32:08;;;;;;;6.90;6.20;;;;;;;29.31;56.25;97885.38;4195350;28;21756;-85
2023/06/10 09:34:13;;;;;;;6.73;6.13;;;;;;;29.46;55.15;97881.22;4184472;28;21199;-86
2023/06/10 09:36:23;;;;;;;9.23;5.70;;;;;;;29.67;55.93;97875.34;4199945;28;21216;-86
2023/06/10 09:38:31;;;;;;;6.10;5.50;;;;;;;29.60;55.43;97888.91;4196004;28;20669;-85
2023/06/10 09:40:49;;;;;;;6.47;5.80;;;;;;;29.69;55.00;97887.50;4199047;28;20754;-84
2023/06/10 09:42:55;;;;;;;6.20;5.70;;;;;;;29.58;54.61;97882.09;4198729;28;20630;-86
2023/06/10 09:44:58;;;;;;;6.57;5.97;;;;;;;29.54;54.77;97880.91;4202041;28;20730;-85
2023/06/10 09:47:02;;;;;;;7.60;6.90;;;;;;;29.75;56.15;97880.38;4186300;28;21212;-85